M I D A S
Marine Information and Data Acquisition System
Tripno 461 of the Zeeleeuw from 2003-04-14 08:48:46 to 2003-04-14 14:26:54
Back to CruiseResearch ActivitiesStationsMapUnderway DataData graphs

EquipmentUnitsComment
TimeDGPSUTC
LatitudeDGPSDM.mWGS84
LongitudeDGPSDM.mWGS84
HeadingGyrodeg 
SOGDGPSknotsSpeed over ground
COGDGPSdegCourse over ground
DepthEcho soundermeters200 kHz
Missing or incorrect values are displayed as -999
Navigation data collected by the RV Zeeleeuw from 2003-04-14 08:48:46 to 2003-04-14 14:26:54
Time Latitude Longitude Heading SOG COG Depth
2003-04-14 08:49:52 51°13.61 2°56.06 110.9 3.4 288 -999
2003-04-14 08:50:52 51°13.64 2°55.95 121.3 4.7 297 -999
2003-04-14 08:51:52 51°13.67 2°55.84 114.6 4.8 294 -999
2003-04-14 08:52:52 51°13.69 2°55.75 86.8 1.8 283 -999
2003-04-14 08:53:52 51°13.7 2°55.74 42.7 0.8 2 13.6
2003-04-14 08:54:52 51°13.72 2°55.73 356.7 2 343 12.9
2003-04-14 08:55:52 51°13.78 2°55.68 336 5.5 330 11.8
2003-04-14 08:56:52 51°13.88 2°55.6 338.9 7.6 334 12
2003-04-14 08:57:52 51°14.02 2°55.5 339.8 9.3 335 12
2003-04-14 08:58:52 51°14.16 2°55.39 338.2 9.5 333 12.2
2003-04-14 08:59:52 51°14.28 2°55.22 317.9 9.7 313 12.4
2003-04-14 09:00:52 51°14.38 2°55.03 316.3 9.6 316 12.6
2003-04-14 09:01:52 51°14.54 2°54.93 336 10 339 11.8
2003-04-14 09:02:52 51°14.68 2°54.84 340.1 8.6 344 11.7
2003-04-14 09:03:52 51°14.79 2°54.85 8.9 5.7 13 11.4
2003-04-14 09:04:52 51°14.87 2°54.88 11 4.5 17 11.5
2003-04-14 09:05:52 51°14.94 2°54.92 9.5 3.9 18 11.4
2003-04-14 09:06:52 51°14.99 2°54.95 6.6 3.5 17 11.4
2003-04-14 09:07:52 51°15.07 2°54.95 337.5 7 343 11.3
2003-04-14 09:08:52 51°15.22 2°54.79 322.9 11.9 324 10.5
2003-04-14 09:09:52 51°15.38 2°54.59 322.8 12.3 323 11.4
2003-04-14 09:10:52 51°15.54 2°54.4 323 12.3 323 11.9
2003-04-14 09:11:52 51°15.71 2°54.21 326.8 12.3 327 12.9
2003-04-14 09:12:52 51°15.89 2°54.02 326.6 13.5 326 13.5
2003-04-14 09:13:52 51°16.08 2°53.82 326.3 13.6 326 14
2003-04-14 09:14:52 51°16.27 2°53.62 326.1 13.6 326 14.1
2003-04-14 09:15:52 51°16.46 2°53.42 326 13.5 326 14.1
2003-04-14 09:16:52 51°16.64 2°53.21 325.9 13.5 325 14.1
2003-04-14 09:17:52 51°16.82 2°53 322.9 13.4 322 12.8
2003-04-14 09:18:52 51°16.99 2°52.78 323 13.6 322 12
2003-04-14 09:19:52 51°17.17 2°52.55 320.6 13.5 319 12.2
2003-04-14 09:20:52 51°17.34 2°52.31 317.6 13.5 317 12.7
2003-04-14 09:21:52 51°17.5 2°52.06 317 13.5 315 13
2003-04-14 09:22:52 51°17.66 2°51.81 317.1 13.5 315 12.9
2003-04-14 09:23:52 51°17.82 2°51.56 317.1 13.4 315 12.8
2003-04-14 09:24:52 51°17.98 2°51.31 317.2 13.5 316 13.6
2003-04-14 09:25:52 51°18.14 2°51.06 317.6 13.5 316 15.1
2003-04-14 09:26:52 51°18.3 2°50.81 317.2 13.6 317 16.1
2003-04-14 09:27:52 51°18.47 2°50.57 317.5 13.6 317 16.9
2003-04-14 09:28:52 51°18.63 2°50.32 317.3 13.6 317 17.1
2003-04-14 09:29:52 51°18.8 2°50.07 317.1 13.5 316 15.7
2003-04-14 09:30:52 51°18.96 2°49.83 317.5 13.3 316 13.7
2003-04-14 09:31:52 51°19.12 2°49.58 317.1 13.4 316 14.3
2003-04-14 09:32:52 51°19.28 2°49.34 317.4 13.5 316 16.3
2003-04-14 09:33:52 51°19.43 2°49.09 315.7 12.8 313 17.9
2003-04-14 09:34:52 51°19.39 2°48.95 195.2 5.4 183 19.2
2003-04-14 09:35:52 51°19.34 2°49.03 128.6 2.4 107 18.1
2003-04-14 09:36:52 51°19.34 2°49.07 100.3 3.4 88 17.6
2003-04-14 09:37:52 51°19.36 2°49.12 45.9 0.3 120 17
2003-04-14 09:38:52 51°19.35 2°49.13 30.6 0.5 92 16.8
2003-04-14 09:39:52 51°19.35 2°49.15 27.8 0.6 84 16.7
2003-04-14 09:40:52 51°19.36 2°49.16 20.8 0.6 71 16.7
2003-04-14 09:41:52 51°19.36 2°49.17 5.8 0.7 56 16.8
2003-04-14 09:42:52 51°19.37 2°49.19 352.3 0.8 50 16.9
2003-04-14 09:43:52 51°19.38 2°49.21 344.7 0.8 44 16.9
2003-04-14 09:44:52 51°19.39 2°49.22 338 0.8 43 17
2003-04-14 09:45:52 51°19.4 2°49.23 336.7 0.8 43 17.1
2003-04-14 09:46:52 51°19.41 2°49.25 335.5 0.8 42 17.2
2003-04-14 09:47:52 51°19.42 2°49.26 338.9 0.9 39 17.4
2003-04-14 09:48:52 51°19.46 2°49.25 336.9 5.4 342 17.3
2003-04-14 09:49:52 51°19.58 2°49.09 302.2 12 303 19.7
2003-04-14 09:50:52 51°19.69 2°48.79 301.7 13.4 302 21.9
2003-04-14 09:51:52 51°19.78 2°48.47 286.7 13.1 286 24.4
2003-04-14 09:52:52 51°19.84 2°48.13 286.2 13.1 286 25.1
2003-04-14 09:53:52 51°19.87 2°47.9 270.6 6.4 275 25.2
2003-04-14 09:54:52 51°19.87 2°47.82 249.7 0.7 306 25.3
2003-04-14 09:55:52 51°19.87 2°47.81 239.3 0.5 291 25.5
2003-04-14 09:56:52 51°19.88 2°47.8 229.3 0.2 276 25.3
2003-04-14 09:57:52 51°19.88 2°47.8 219.5 0.1 68 25.3
2003-04-14 09:58:52 51°19.88 2°47.81 211.9 0.3 78 25.4
2003-04-14 09:59:52 51°19.88 2°47.82 204.5 0.4 82 25.3
2003-04-14 10:00:52 51°19.88 2°47.83 198.8 0.6 81 25.3
2003-04-14 10:01:52 51°19.88 2°47.85 192.8 0.6 80 25.3
2003-04-14 10:02:52 51°19.88 2°47.86 188.9 0.7 82 25.4
2003-04-14 10:03:52 51°19.89 2°47.88 185.2 0.8 82 25.4
2003-04-14 10:04:52 51°19.89 2°47.9 181.1 0.8 79 25.4
2003-04-14 10:05:52 51°19.89 2°47.93 179.1 0.9 74 25.4
2003-04-14 10:06:52 51°19.9 2°47.95 177.9 0.8 71 25.3
2003-04-14 10:07:52 51°19.9 2°47.97 174.1 1 71 25.4
2003-04-14 10:08:52 51°19.91 2°47.99 170.5 1 71 25.5
2003-04-14 10:09:52 51°19.91 2°48.02 167.1 1.1 67 25.4
2003-04-14 10:10:52 51°19.92 2°48.05 166.9 1.1 69 25.3
2003-04-14 10:11:52 51°19.92 2°48.07 164.1 1.1 69 25.6
2003-04-14 10:12:52 51°19.93 2°48.1 158.8 1.1 70 25.5
2003-04-14 10:13:52 51°19.94 2°48.13 158.4 1.2 67 25.6
2003-04-14 10:14:52 51°19.95 2°48.16 158.3 1.2 67 25.4
2003-04-14 10:15:52 51°19.95 2°48.19 158.1 1.2 66 25.5
2003-04-14 10:16:52 51°19.96 2°48.22 156.8 1.1 66 25.3
2003-04-14 10:17:52 51°19.97 2°48.25 155.5 1.2 66 25.4
2003-04-14 10:18:52 51°19.98 2°48.27 154.7 1.2 64 25.4
2003-04-14 10:19:52 51°19.99 2°48.3 153.8 1.1 68 25.4
2003-04-14 10:20:52 51°19.99 2°48.33 154 1.3 84 25.5
2003-04-14 10:21:52 51°19.99 2°48.37 154.6 1.5 93 25.5
2003-04-14 10:22:52 51°19.99 2°48.41 157.2 1.5 103 25.5
2003-04-14 10:23:52 51°19.98 2°48.45 160.7 1.6 106 25.5
2003-04-14 10:24:52 51°19.97 2°48.49 163.9 1.6 111 25.6
2003-04-14 10:25:52 51°19.96 2°48.53 167.4 1.6 116 25.4
2003-04-14 10:26:52 51°19.95 2°48.57 170.9 1.5 119 25.4
2003-04-14 10:27:52 51°19.93 2°48.6 173.4 1.4 121 25.2
2003-04-14 10:28:52 51°19.92 2°48.63 176.9 1.5 125 25.1
2003-04-14 10:29:52 51°19.91 2°48.67 179.3 1.4 131 24.9
2003-04-14 10:30:52 51°19.87 2°48.69 188 4 172 24.7
2003-04-14 10:31:52 51°19.77 2°48.61 218.9 7.7 214 24
2003-04-14 10:32:52 51°19.68 2°48.45 239.2 9.3 237 23.8
2003-04-14 10:33:52 51°19.6 2°48.22 244.4 10.2 243 24.2
2003-04-14 10:34:52 51°19.53 2°47.97 245.9 10.2 246 24.5
2003-04-14 10:35:52 51°19.45 2°47.71 246 11.8 246 24.6
2003-04-14 10:36:52 51°19.37 2°47.42 245.2 12.2 245 24.5
2003-04-14 10:37:52 51°19.28 2°47.13 245.6 12.2 245 24.4
2003-04-14 10:38:52 51°19.19 2°46.84 245.2 12.2 242 24.3
2003-04-14 10:39:52 51°19.08 2°46.57 228.8 11.9 225 24.3
2003-04-14 10:40:52 51°18.91 2°46.41 204.6 12.2 197 24.2
2003-04-14 10:41:52 51°18.7 2°46.35 194.3 12.7 187 23.7
2003-04-14 10:42:52 51°18.49 2°46.31 193.8 12.8 186 22.5
2003-04-14 10:43:52 51°18.29 2°46.27 194.9 12.3 188 21.8
2003-04-14 10:44:52 51°18.11 2°46.12 224.9 12 221 20
2003-04-14 10:45:52 51°18 2°45.86 241.9 12.2 240 20.8
2003-04-14 10:46:52 51°17.91 2°45.56 248.4 12.3 246 21.1
2003-04-14 10:47:52 51°17.82 2°45.27 247.8 12.3 245 20.6
2003-04-14 10:48:52 51°17.74 2°44.97 248.3 12.2 246 20.7
2003-04-14 10:49:52 51°17.65 2°44.68 247.9 12.5 246 20.5
2003-04-14 10:50:52 51°17.56 2°44.38 247.3 12.2 245 19.9
2003-04-14 10:51:52 51°17.48 2°44.08 248.2 12.4 245 19.9
2003-04-14 10:52:52 51°17.33 2°43.85 217 12.6 211 18.3
2003-04-14 10:53:52 51°17.12 2°43.79 190.6 13 184 17.8
2003-04-14 10:54:52 51°16.91 2°43.75 195.9 12.9 189 17.7
2003-04-14 10:55:52 51°16.7 2°43.69 195.9 12.8 189 17.5
2003-04-14 10:56:52 51°16.49 2°43.63 195.8 12.8 190 17.6
2003-04-14 10:57:52 51°16.28 2°43.57 196.5 13.1 190 17
2003-04-14 10:58:52 51°16.07 2°43.51 196.3 12.9 190 15.9
2003-04-14 10:59:52 51°15.86 2°43.46 197.3 12.6 191 15
2003-04-14 11:00:52 51°15.66 2°43.4 196 12.7 190 14.6
2003-04-14 11:01:52 51°15.45 2°43.33 199.8 12.7 193 16.1
2003-04-14 11:02:52 51°15.24 2°43.25 200 12.9 193 16.1
2003-04-14 11:03:52 51°15.04 2°43.15 211.4 12.5 206 16.6
2003-04-14 11:04:52 51°14.89 2°42.93 237.1 12.3 234 15.6
2003-04-14 11:05:52 51°14.79 2°42.64 247.8 12.4 245 15.5
2003-04-14 11:06:52 51°14.71 2°42.34 248.7 12.4 246 17.2
2003-04-14 11:07:52 51°14.62 2°42.05 248.4 12.4 246 16.8
2003-04-14 11:08:52 51°14.54 2°41.75 247.8 12.4 245 16.6
2003-04-14 11:09:52 51°14.46 2°41.44 248.2 12.4 246 17.1
2003-04-14 11:10:52 51°14.37 2°41.14 249.7 12.6 247 17.7
2003-04-14 11:11:52 51°14.29 2°40.84 248.7 12.6 246 17.1
2003-04-14 11:12:52 51°14.2 2°40.53 249 12.5 245 16.5
2003-04-14 11:13:52 51°14.12 2°40.22 249.5 12.7 247 16.1
2003-04-14 11:14:52 51°14.03 2°39.91 249.6 12.7 246 16.6
2003-04-14 11:15:52 51°13.95 2°39.6 249.2 13.2 247 16.7
2003-04-14 11:16:52 51°13.86 2°39.28 248.8 13.1 247 16.8
2003-04-14 11:17:52 51°13.78 2°38.96 248.8 12.8 247 17.1
2003-04-14 11:18:52 51°13.64 2°38.72 218 12.7 214 17.1
2003-04-14 11:19:52 51°13.45 2°38.57 209.8 12.9 206 17.3
2003-04-14 11:20:52 51°13.26 2°38.39 218.1 13 214 17
2003-04-14 11:21:52 51°13.08 2°38.2 217.4 12.9 214 16.6
2003-04-14 11:22:52 51°12.9 2°38.01 215.8 12.8 212 15.8
2003-04-14 11:23:52 51°12.72 2°37.83 215.7 12.9 211 15.3
2003-04-14 11:24:52 51°12.54 2°37.66 215.6 12.8 211 14.9
2003-04-14 11:25:52 51°12.36 2°37.48 216.2 12.9 212 14.3
2003-04-14 11:26:52 51°12.17 2°37.3 214.8 12.9 210 14.1
2003-04-14 11:27:52 51°11.98 2°37.13 213 12.9 209 14
2003-04-14 11:28:52 51°11.79 2°36.97 212.1 13 207 14.2
2003-04-14 11:29:52 51°11.6 2°36.81 213.1 12.9 209 14.3
2003-04-14 11:30:52 51°11.41 2°36.64 213.8 12.9 209 14.3
2003-04-14 11:31:52 51°11.23 2°36.47 214.1 12.9 210 14.4
2003-04-14 11:32:52 51°11.04 2°36.3 213.4 12.9 209 14.1
2003-04-14 11:33:52 51°10.86 2°36.14 213.3 12.4 209 14.1
2003-04-14 11:34:52 51°10.67 2°35.98 211.1 12.5 207 13.5
2003-04-14 11:35:52 51°10.49 2°35.84 209.8 12.3 205 13.4
2003-04-14 11:36:52 51°10.29 2°35.76 194.5 12.6 190 13.4
2003-04-14 11:37:52 51°10.08 2°35.78 172.5 13.2 166 16.7
2003-04-14 11:38:52 51°9.88 2°35.95 150.1 13.7 142 21.2
2003-04-14 11:39:52 51°9.76 2°36.26 115.6 14.1 108 20.3
2003-04-14 11:40:52 51°9.7 2°36.63 111.1 14.5 104 19.8
2003-04-14 11:41:52 51°9.65 2°36.9 126.1 7.6 113 18.9
2003-04-14 11:42:52 51°9.6 2°36.99 164.2 3.3 144 18.7
2003-04-14 11:43:52 51°9.57 2°37.02 187.1 2.2 160 18.8
2003-04-14 11:44:52 51°9.54 2°37.02 218.5 1.3 193 18.7
2003-04-14 11:45:52 51°9.53 2°37.01 244.3 0.6 254 18.7
2003-04-14 11:46:52 51°9.53 2°36.99 251.9 0.6 278 18.7
2003-04-14 11:47:52 51°9.53 2°36.98 239.8 0.6 249 18.7
2003-04-14 11:48:52 51°9.51 2°36.95 222.9 2.2 214 18.7
2003-04-14 11:49:52 51°9.47 2°36.9 233 3 229 18.6
2003-04-14 11:50:52 51°9.45 2°36.83 249.1 3.3 249 18.5
2003-04-14 11:51:52 51°9.44 2°36.75 247.6 2.7 251 18.7
2003-04-14 11:52:52 51°9.42 2°36.69 237.6 2.3 238 18.6
2003-04-14 11:53:52 51°9.4 2°36.64 239.2 2.3 239 18.7
2003-04-14 11:54:52 51°9.38 2°36.59 245.4 2.4 247 18.6
2003-04-14 11:55:52 51°9.36 2°36.53 243.6 2.4 246 18.4
2003-04-14 11:56:52 51°9.35 2°36.47 241.9 2.4 244 18.5
2003-04-14 11:57:52 51°9.33 2°36.42 242.3 2.3 243 18.5
2003-04-14 11:58:52 51°9.31 2°36.36 240.9 2.4 242 18.5
2003-04-14 11:59:52 51°9.29 2°36.31 241.6 2.3 242 18.5
2003-04-14 12:00:52 51°9.27 2°36.25 241.9 2.4 243 18.4
2003-04-14 12:01:52 51°9.26 2°36.19 242.7 2.4 245 18.6
2003-04-14 12:02:52 51°9.24 2°36.14 244.5 2.4 246 18.5
2003-04-14 12:03:52 51°9.22 2°36.08 234.7 2.3 234 18.4
2003-04-14 12:04:52 51°9.2 2°36.03 239 2.4 239 18.6
2003-04-14 12:05:52 51°9.18 2°35.97 241 2.4 242 18.5
2003-04-14 12:06:52 51°9.16 2°35.92 240.9 2.4 242 18.6
2003-04-14 12:07:52 51°9.14 2°35.86 238.6 2.4 238 18.5
2003-04-14 12:08:52 51°9.12 2°35.8 241.4 2.5 243 18.5
2003-04-14 12:09:52 51°9.1 2°35.75 239.3 2.4 240 18.6
2003-04-14 12:10:52 51°9.08 2°35.69 237.2 2.4 237 18.6
2003-04-14 12:11:52 51°9.06 2°35.64 239.7 2.4 240 18.6
2003-04-14 12:12:52 51°9.04 2°35.58 243.8 2.5 246 18.6
2003-04-14 12:13:52 51°9.02 2°35.52 238.7 2.4 241 18.6
2003-04-14 12:14:52 51°9 2°35.47 238.9 2.4 240 18.8
2003-04-14 12:15:52 51°8.98 2°35.41 237.4 2.4 239 18.7
2003-04-14 12:16:52 51°8.96 2°35.36 235.5 2.5 236 18.7
2003-04-14 12:17:52 51°8.94 2°35.3 241.6 2.5 244 18.7
2003-04-14 12:18:52 51°8.92 2°35.24 238.7 2.5 239 18.6
2003-04-14 12:19:52 51°8.9 2°35.18 237.3 2.6 235 18.7
2003-04-14 12:20:52 51°8.87 2°35.13 238.1 2.6 238 18.6
2003-04-14 12:21:52 51°8.86 2°35.08 240.4 1.9 244 18.7
2003-04-14 12:22:52 51°8.85 2°35.03 243 1.6 251 18.7
2003-04-14 12:23:52 51°8.84 2°35 240.7 1.4 250 18.7
2003-04-14 12:24:52 51°8.83 2°34.96 234.8 1.1 243 18.8
2003-04-14 12:25:52 51°8.82 2°34.94 227.2 0.9 235 18.8
2003-04-14 12:26:52 51°8.8 2°34.91 227.9 2.2 229 18.7
2003-04-14 12:27:52 51°8.79 2°34.8 273.4 5.2 275 18.8
2003-04-14 12:28:52 51°8.83 2°34.7 314.7 3.9 321 18.9
2003-04-14 12:29:52 51°8.88 2°34.67 334.4 2.9 342 19
2003-04-14 12:30:52 51°8.92 2°34.66 350 2.6 358 18.8
2003-04-14 12:31:52 51°8.96 2°34.66 1.5 2.1 7 18.9
2003-04-14 12:32:52 51°8.99 2°34.67 15.2 2.5 15 18.7
2003-04-14 12:33:52 51°9.05 2°34.72 44.1 4.1 36 19
2003-04-14 12:34:52 51°9.1 2°34.8 58.2 5 50 18.7
2003-04-14 12:35:52 51°9.16 2°34.91 58.3 5.1 50 19.1
2003-04-14 12:36:52 51°9.2 2°35 65.6 3.7 53 18.5
2003-04-14 12:37:52 51°9.23 2°35.06 68.8 2.8 52 19.2
2003-04-14 12:38:52 51°9.26 2°35.12 66.4 2.3 46 19.2
2003-04-14 12:39:52 51°9.29 2°35.15 62 2.1 43 19.1
2003-04-14 12:40:52 51°9.32 2°35.21 63.2 3.3 50 19.5
2003-04-14 12:41:52 51°9.35 2°35.27 63.9 2.6 48 19.5
2003-04-14 12:42:52 51°9.37 2°35.31 64.8 2.1 46 19.7
2003-04-14 12:43:52 51°9.4 2°35.35 66.9 1.7 45 18.8
2003-04-14 12:44:52 51°9.41 2°35.37 69.9 1.4 43 19.6
2003-04-14 12:45:52 51°9.43 2°35.41 70.7 3.5 58 19.1
2003-04-14 12:46:52 51°9.51 2°35.62 66.2 11 60 18.9
2003-04-14 12:47:52 51°9.61 2°35.91 65.8 13.8 60 19
2003-04-14 12:48:52 51°9.73 2°36.24 68.3 14.3 63 19
2003-04-14 12:49:52 51°9.83 2°36.58 70.7 14.4 65 19.3
2003-04-14 12:50:52 51°9.93 2°36.93 70.1 14.4 64 19.5
2003-04-14 12:51:52 51°10.04 2°37.27 70.2 14.4 64 19.5
2003-04-14 12:52:52 51°10.14 2°37.62 70.4 14.3 65 19.4
2003-04-14 12:53:52 51°10.24 2°37.95 70.4 14 65 18.6
2003-04-14 12:54:52 51°10.34 2°38.29 70.5 14 65 18.2
2003-04-14 12:55:52 51°10.4 2°38.64 81.6 13.9 77 18.1
2003-04-14 12:56:52 51°10.46 2°39 81 14.1 76 17.5
2003-04-14 12:57:52 51°10.52 2°39.37 80.9 14.2 76 17
2003-04-14 12:58:52 51°10.58 2°39.73 80.6 14.2 76 16.2
2003-04-14 12:59:52 51°10.63 2°40.09 80.7 14.2 76 15.5
2003-04-14 13:00:52 51°10.7 2°40.46 80.6 14.3 75 14.9
2003-04-14 13:01:52 51°10.76 2°40.82 80.2 14.3 75 14.3
2003-04-14 13:02:52 51°10.86 2°41.02 12.5 6.9 11 14.3
2003-04-14 13:03:52 51°10.92 2°40.96 295 3.7 301 14.3
2003-04-14 13:04:52 51°10.91 2°40.86 246 5.4 243 14.5
2003-04-14 13:05:52 51°10.82 2°40.79 192.6 6.6 185 14.4
2003-04-14 13:06:52 51°10.74 2°40.85 133.1 4.8 124 14.4
2003-04-14 13:07:52 51°10.74 2°40.91 93.4 0.2 329 14.2
2003-04-14 13:08:52 51°10.74 2°40.92 73.6 0.7 67 -999
2003-04-14 13:09:52 51°10.75 2°40.93 59.4 0.6 43 -999
2003-04-14 13:10:52 51°10.76 2°40.94 43.7 0.6 25 14.2
2003-04-14 13:11:52 51°10.76 2°40.95 29.3 0.6 17 14.2
2003-04-14 13:12:52 51°10.77 2°40.95 18.2 0.5 16 14.2
2003-04-14 13:13:52 51°10.78 2°40.96 11.5 0.6 14 14.1
2003-04-14 13:14:52 51°10.79 2°40.96 9 0.7 10 14.1
2003-04-14 13:15:52 51°10.8 2°40.96 9.7 0.7 6 14.1
2003-04-14 13:16:52 51°10.82 2°40.96 9.8 0.8 8 14.1
2003-04-14 13:17:52 51°10.83 2°40.97 13.8 0.9 12 14.1
2003-04-14 13:18:52 51°10.84 2°40.97 18.1 0.9 15 14.1
2003-04-14 13:19:52 51°10.86 2°40.98 22.5 0.8 14 14
2003-04-14 13:20:52 51°10.87 2°40.98 25.5 0.8 15 14.1
2003-04-14 13:21:52 51°10.88 2°40.99 29 0.8 15 14
2003-04-14 13:22:52 51°10.9 2°40.99 31.9 0.8 16 14
2003-04-14 13:23:52 51°10.91 2°41 35.4 0.8 19 14.1
2003-04-14 13:24:52 51°10.92 2°41.01 37.8 0.8 15 14
2003-04-14 13:25:52 51°10.93 2°41.01 35.1 0.7 12 14
2003-04-14 13:26:52 51°10.95 2°41.01 30.4 0.7 9 13.9
2003-04-14 13:27:52 51°10.96 2°41.02 24.6 0.7 7 14
2003-04-14 13:28:52 51°10.97 2°41.02 20.6 0.7 7 14
2003-04-14 13:29:52 51°10.98 2°41.02 17.6 0.8 12 13.9
2003-04-14 13:30:52 51°10.99 2°41.02 14.5 0.8 5 14
2003-04-14 13:31:52 51°11.01 2°41.02 10.7 0.8 2 14
2003-04-14 13:32:52 51°11.02 2°41.02 8.7 0.8 1 14
2003-04-14 13:33:52 51°11.04 2°41.03 9.9 0.8 2 14
2003-04-14 13:34:52 51°11.05 2°41.03 11.9 0.8 3 13.9
2003-04-14 13:35:52 51°11.06 2°41.03 16.4 0.7 2 13.9
2003-04-14 13:36:52 51°11.07 2°41.03 17.7 0.7 356 13.9
2003-04-14 13:37:52 51°11.09 2°41.03 20.2 2.1 12 13.8
2003-04-14 13:38:52 51°11.15 2°41.13 72.6 7.8 68 13.5
2003-04-14 13:39:52 51°11.17 2°41.43 87.9 13.3 83 13.1
2003-04-14 13:40:52 51°11.2 2°41.8 87.2 13.9 83 13
2003-04-14 13:41:52 51°11.23 2°42.16 89 13.9 84 12.8
2003-04-14 13:42:52 51°11.25 2°42.53 88.8 14 84 12.8
2003-04-14 13:43:52 51°11.28 2°42.9 88.8 13.9 84 13.2
2003-04-14 13:44:52 51°11.3 2°43.26 88.9 13.9 84 13.5
2003-04-14 13:45:52 51°11.34 2°43.63 82.8 13.8 78 13.6
2003-04-14 13:46:52 51°11.39 2°43.98 81.8 13.8 77 13.6
2003-04-14 13:47:52 51°11.44 2°44.34 78.9 13.7 74 13.6
2003-04-14 13:48:52 51°11.5 2°44.69 78.8 13.8 74 13.5
2003-04-14 13:49:52 51°11.57 2°45.03 76.9 13.8 72 13.6
2003-04-14 13:50:52 51°11.64 2°45.38 76.9 13.7 72 13.7
2003-04-14 13:51:52 51°11.71 2°45.73 77.6 13.7 72 13.7
2003-04-14 13:52:52 51°11.78 2°46.07 74.9 13.6 70 13.6
2003-04-14 13:53:52 51°11.87 2°46.4 71.3 13.6 66 13.6
2003-04-14 13:54:52 51°11.97 2°46.73 71 13.6 66 13.5
2003-04-14 13:55:52 51°12.06 2°47.06 70.6 13.7 66 13.5
2003-04-14 13:56:52 51°12.15 2°47.39 71.3 13.7 66 13.4
2003-04-14 13:57:52 51°12.24 2°47.72 71.3 13.7 66 13.3
2003-04-14 13:58:52 51°12.34 2°48.05 71.2 13.7 66 13
2003-04-14 13:59:52 51°12.43 2°48.38 70.8 13.6 65 12.9
2003-04-14 14:00:52 51°12.53 2°48.71 67.9 13.6 63 12.8
2003-04-14 14:01:52 51°12.64 2°49.02 67.3 13.5 62 12.5
2003-04-14 14:02:52 51°12.74 2°49.34 66.5 13.6 61 12.3
2003-04-14 14:03:52 51°12.85 2°49.65 66.3 13.6 61 12.2
2003-04-14 14:04:52 51°12.96 2°49.97 65.9 13.6 61 12.1
2003-04-14 14:05:52 51°13.08 2°50.28 66.3 13.6 61 11.9
2003-04-14 14:06:52 51°13.19 2°50.59 66.1 13.6 61 11.8
2003-04-14 14:07:52 51°13.29 2°50.91 66.1 13.5 61 11.7
2003-04-14 14:08:52 51°13.4 2°51.22 66 13.6 61 11.5
2003-04-14 14:09:52 51°13.51 2°51.54 66.4 13.5 61 11.5
2003-04-14 14:10:52 51°13.62 2°51.85 66.3 13.5 61 11.3
2003-04-14 14:11:52 51°13.73 2°52.16 66.2 13.5 61 11
2003-04-14 14:12:52 51°13.78 2°52.38 88.3 6.4 82 11.2
2003-04-14 14:13:52 51°13.82 2°52.48 53.2 3.3 47 11.1
2003-04-14 14:14:52 51°13.85 2°52.52 41.4 2.2 28 11.2
2003-04-14 14:15:52 51°13.88 2°52.55 48.7 1.8 33 11.2
2003-04-14 14:16:52 51°13.9 2°52.57 61.1 1.6 46 11.2
2003-04-14 14:17:52 51°13.93 2°52.63 52.7 5.6 46 11.2
2003-04-14 14:18:52 51°14.05 2°52.86 58.4 12.4 53 10.8
2003-04-14 14:19:52 51°14.16 2°53.14 61.7 12.6 56 10.6
2003-04-14 14:20:52 51°14.28 2°53.42 61.8 12.6 57 10.2
2003-04-14 14:21:52 51°14.39 2°53.69 59.9 12.3 54 10.1
2003-04-14 14:22:52 51°14.47 2°53.98 82.4 11.7 78 10
2003-04-14 14:23:52 51°14.49 2°54.29 86.6 11.4 82 10.6
2003-04-14 14:24:52 51°14.48 2°54.58 102.3 11.2 99 10.5
2003-04-14 14:25:52 51°14.42 2°54.86 113.3 10.9 114 10.5
2003-04-14 14:26:52 51°14.34 2°55.11 126.2 11 124 10